Time;durP1;ratioP1;P1;durP2;ratioP2;P2;SDS_P1;SDS_P2;PMS_P1;PMS_P2;Temp;Humidity;BMP_temperature;BMP_pressure;BME280_temperature;BME280_humidity;BME280_pressure;Samples;Min_cycle;Max_cycle;Signal;HPM_P1;HPM_P2
2022/12/23 00:02:02;;;;;;;16.95;12.45;;;;;;;28.56;52.70;100989.94;5054557;28;65302;-35
2022/12/23 00:04:33;;;;;;;19.23;12.60;;;;;;;28.60;52.67;100993.03;5060934;28;68197;-37
2022/12/23 00:07:05;;;;;;;19.52;12.73;;;;;;;28.35;53.10;100953.06;5054881;28;66291;-39
2022/12/23 00:09:36;;;;;;;25.63;13.13;;;;;;;28.63;53.20;101006.13;5052632;28;69480;-36
2022/12/23 00:15:05;;;;;;;21.38;12.48;;;;;;;28.52;53.82;100992.19;5052117;28;70130;-35
2022/12/23 00:17:42;;;;;;;15.40;11.38;;;;;;;28.15;53.62;100935.97;5058976;28;67082;-36
2022/12/23 00:20:14;;;;;;;16.77;12.38;;;;;;;28.69;53.48;101024.22;5050584;28;70647;-35
2022/12/23 00:23:04;;;;;;;16.02;11.70;;;;;;;28.68;53.82;101018.00;5053315;28;66273;-34
2022/12/23 00:25:43;;;;;;;20.50;12.27;;;;;;;28.70;53.17;101034.00;5053241;28;69339;-33
2022/12/23 00:28:20;;;;;;;13.32;11.30;;;;;;;28.33;52.97;100965.91;5053768;28;66371;-33
2022/12/23 00:30:58;;;;;;;17.50;11.50;;;;;;;28.52;53.15;101013.75;5053795;28;69731;-34
2022/12/23 00:33:39;;;;;;;16.35;11.20;;;;;;;28.71;53.08;101047.28;5055985;28;65587;-34
2022/12/23 00:36:18;;;;;;;16.38;11.85;;;;;;;28.41;53.51;101000.81;5046033;28;70170;-34
2022/12/23 00:44:29;;;;;;;18.65;12.32;;;;;;;28.66;53.43;101051.63;5056300;28;66117;-36
2022/12/23 00:47:01;;;;;;;20.20;11.52;;;;;;;28.77;53.75;101078.03;5058042;28;69686;-34
2022/12/23 00:49:41;;;;;;;12.73;11.00;;;;;;;28.75;53.91;101080.09;5054717;28;66589;-35
2022/12/23 00:52:16;;;;;;;13.27;10.95;;;;;;;28.39;53.02;101024.50;5051106;28;69917;-34
2022/12/23 00:54:48;;;;;;;12.48;9.98;;;;;;;28.68;53.58;101079.25;5057975;28;65760;-35
2022/12/23 00:57:19;;;;;;;10.77;9.67;;;;;;;28.69;53.70;101094.41;5059938;28;69059;-35
2022/12/23 00:59:50;;;;;;;15.10;9.77;;;;;;;28.72;53.49;101088.59;5051278;28;65247;-37
2022/12/23 01:08:12;;;;;;;10.95;9.82;;;;;;;28.68;52.84;101095.44;5043957;28;69584;-34
2022/12/23 01:10:43;;;;;;;14.30;9.63;;;;;;;28.73;52.66;101103.78;5050235;28;65511;-36
2022/12/23 01:13:14;;;;;;;10.83;9.83;;;;;;;28.64;52.58;101096.84;5047811;28;69880;-34
2022/12/23 01:15:46;;;;;;;12.57;10.03;;;;;;;28.74;52.45;101124.34;5052488;28;65562;-34
2022/12/23 01:18:17;;;;;;;11.65;10.50;;;;;;;28.68;52.73;101122.44;5050151;28;69837;-35
2022/12/23 01:20:48;;;;;;;11.27;9.85;;;;;;;28.75;52.12;101125.97;5056179;28;66000;-35
2022/12/23 01:23:19;;;;;;;11.23;10.23;;;;;;;28.75;52.21;101136.78;5041115;28;70058;-36
2022/12/23 01:25:58;;;;;;;11.20;10.00;;;;;;;28.63;52.09;101123.03;5059783;28;65990;-36
2022/12/23 01:28:31;;;;;;;12.10;10.80;;;;;;;28.77;52.25;101140.13;5049457;28;70458;-36
2022/12/23 01:31:05;;;;;;;13.27;10.68;;;;;;;28.33;51.56;101057.63;5045805;28;66597;-35
2022/12/23 01:33:36;;;;;;;16.33;11.43;;;;;;;28.77;51.50;101140.13;5053215;28;69489;-38
2022/12/23 01:36:09;;;;;;;13.93;11.73;;;;;;;28.72;52.01;101132.66;5054600;28;66307;-34
2022/12/23 01:38:40;;;;;;;13.15;10.75;;;;;;;28.77;51.35;101145.53;5052677;28;70595;-34
2022/12/23 01:44:52;;;;;;;13.30;11.10;;;;;;;28.68;51.52;101152.13;5058674;28;70081;-35
2022/12/23 01:47:48;;;;;;;15.27;11.07;;;;;;;28.67;51.44;101147.78;5046013;28;65810;-34
2022/12/23 01:50:30;;;;;;;15.57;10.70;;;;;;;28.27;50.80;101066.53;5050335;28;70290;-34
2022/12/23 01:53:20;;;;;;;12.63;11.35;;;;;;;28.71;50.81;101151.72;5050609;28;66909;-34
2022/12/23 01:56:02;;;;;;;21.83;12.10;;;;;;;28.38;50.93;101086.72;5059129;28;69976;-38
2022/12/23 01:58:58;;;;;;;;;;;;;;;28.42;51.79;101150.94;5057678;28;65687;-34
2022/12/23 02:04:24;;;;;;;16.73;10.85;;;;;;;28.68;50.66;101136.75;5044773;28;66202;-38
2022/12/23 02:09:44;;;;;;;12.40;11.10;;;;;;;28.77;51.00;101156.31;5049488;28;66057;-34
2022/12/23 02:12:34;;;;;;;12.98;11.65;;;;;;;28.73;50.67;101164.00;5053013;28;68965;-35
2022/12/23 02:18:20;;;;;;;;;;;;;;;28.45;51.12;101161.34;5073869;27;70336;-36
2022/12/23 02:21:10;;;;;;;20.90;12.90;;;;;;;28.70;50.36;101159.00;5055529;28;66030;-34
2022/12/23 02:24:14;;;;;;;13.95;11.75;;;;;;;28.75;50.52;101158.38;5047708;28;70562;-35
2022/12/23 02:27:03;;;;;;;14.05;11.82;;;;;;;28.80;50.68;101152.41;5055104;28;65902;-35
2022/12/23 02:29:38;;;;;;;14.88;12.02;;;;;;;28.89;50.75;101162.84;5053577;28;69916;-36
2022/12/23 02:32:30;;;;;;;14.38;12.18;;;;;;;28.91;50.22;101163.44;5054620;28;65753;-34
2022/12/23 02:35:01;;;;;;;15.48;12.07;;;;;;;28.88;50.74;101158.47;5055842;28;70509;-35
2022/12/23 02:37:50;;;;;;;15.48;12.50;;;;;;;28.87;50.57;101156.81;5051964;28;66299;-34
2022/12/23 02:40:52;;;;;;;14.98;11.10;;;;;;;28.84;50.62;101165.31;5052254;28;70280;-35
2022/12/23 02:43:33;;;;;;;16.23;12.68;;;;;;;28.90;50.79;101159.09;5052688;28;66284;-34
2022/12/23 02:46:15;;;;;;;15.20;12.27;;;;;;;28.93;50.20;101156.00;5055426;28;70508;-34
2022/12/23 02:49:28;;;;;;;15.15;11.75;;;;;;;28.92;50.49;101162.44;5056021;28;65128;-35
2022/12/23 02:52:11;;;;;;;12.95;11.63;;;;;;;29.00;50.07;101166.00;5040312;28;69145;-35
2022/12/23 02:54:49;;;;;;;14.10;11.90;;;;;;;28.93;50.17;101150.59;5057135;28;67291;-34
2022/12/23 02:57:27;;;;;;;13.35;12.02;;;;;;;28.64;50.31;101086.06;5048620;28;69643;-34
2022/12/23 02:59:59;;;;;;;13.40;11.45;;;;;;;29.04;50.01;101157.31;5050696;28;65702;-34
2022/12/23 03:02:35;;;;;;;12.05;11.00;;;;;;;28.67;50.03;101089.22;5057541;28;69626;-35
2022/12/23 03:05:27;;;;;;;13.95;11.43;;;;;;;29.01;49.95;101146.91;5053094;28;66431;-34
2022/12/23 03:08:03;;;;;;;13.30;12.00;;;;;;;29.06;50.34;101144.47;5053523;28;70063;-35
2022/12/23 03:11:00;;;;;;;12.43;11.25;;;;;;;29.02;50.08;101147.72;5055593;28;66558;-35
2022/12/23 03:14:09;;;;;;;12.35;11.27;;;;;;;29.03;50.19;101143.97;5051119;28;70099;-35
2022/12/23 03:17:25;;;;;;;12.95;11.65;;;;;;;29.05;50.20;101147.34;5050709;28;65877;-37
2022/12/23 03:20:23;;;;;;;14.95;11.30;;;;;;;28.66;50.10;101076.72;5059273;27;70059;-34
2022/12/23 03:23:16;;;;;;;12.20;11.15;;;;;;;29.13;50.02;101139.06;5049395;28;66398;-34
2022/12/23 03:25:58;;;;;;;12.13;11.07;;;;;;;29.20;49.55;101139.09;5048200;28;69794;-36
2022/12/23 03:28:48;;;;;;;12.50;11.13;;;;;;;28.75;49.78;101061.19;5055432;28;66686;-35
2022/12/23 03:31:30;;;;;;;12.60;11.40;;;;;;;28.69;49.85;101040.41;5051935;28;69227;-35
2022/12/23 03:34:07;;;;;;;13.40;11.38;;;;;;;28.96;49.87;101074.56;5055711;28;65896;-35
2022/12/23 03:36:45;;;;;;;13.38;11.50;;;;;;;29.14;49.60;101092.09;5056131;28;69990;-35
2022/12/23 03:39:19;;;;;;;12.70;10.88;;;;;;;28.90;49.98;101032.19;5056773;28;66374;-35
2022/12/23 03:42:06;;;;;;;15.25;11.02;;;;;;;29.25;49.55;101096.09;5057638;28;70066;-35
2022/12/23 03:44:44;;;;;;;12.13;10.85;;;;;;;29.33;49.71;101107.53;5049869;28;65861;-35
2022/12/23 03:47:46;;;;;;;12.43;10.77;;;;;;;28.66;49.73;100981.44;5053136;28;69569;-36
2022/12/23 03:50:19;;;;;;;11.90;10.77;;;;;;;29.37;49.72;101098.00;5051701;28;65901;-34
2022/12/23 03:53:08;;;;;;;12.02;11.13;;;;;;;29.41;49.65;101103.81;5053696;28;69413;-35
2022/12/23 03:55:53;;;;;;;12.18;11.18;;;;;;;29.37;49.19;101092.59;5050882;28;66385;-35
2022/12/23 03:58:39;;;;;;;14.05;11.55;;;;;;;29.40;49.46;101097.59;5046808;28;70414;-33
2022/12/23 04:01:26;;;;;;;11.63;10.63;;;;;;;29.47;49.03;101102.16;5048192;28;65593;-34
2022/12/23 04:04:13;;;;;;;12.02;10.98;;;;;;;29.48;49.38;101093.03;5052956;28;69834;-35
2022/12/23 04:07:00;;;;;;;11.85;10.95;;;;;;;29.40;49.41;101075.97;5059253;28;65918;-37
2022/12/23 04:09:31;;;;;;;11.40;10.35;;;;;;;29.54;49.53;101089.50;5057843;28;69962;-36
2022/12/23 04:12:03;;;;;;;11.83;10.73;;;;;;;29.55;49.73;101072.22;5053248;28;65427;-37
2022/12/23 04:14:36;;;;;;;12.07;10.93;;;;;;;29.58;49.11;101071.81;5042683;28;69908;-35
2022/12/23 04:17:07;;;;;;;11.68;10.68;;;;;;;29.61;49.02;101066.00;5060450;28;65747;-35
2022/12/23 04:19:39;;;;;;;11.80;10.50;;;;;;;29.62;49.32;101062.28;5052115;28;70350;-36
2022/12/23 04:22:11;;;;;;;11.40;10.40;;;;;;;29.64;49.12;101054.78;5049066;28;66822;-35
2022/12/23 04:24:42;;;;;;;12.02;10.75;;;;;;;29.65;49.26;101040.25;5049002;28;70336;-34
2022/12/23 04:27:15;;;;;;;12.02;10.93;;;;;;;29.27;48.63;100973.25;5055857;28;65083;-35
2022/12/23 04:29:46;;;;;;;10.85;9.95;;;;;;;29.71;49.00;101036.72;5053053;28;69503;-35
2022/12/23 04:32:17;;;;;;;11.05;10.15;;;;;;;29.73;48.58;101026.53;5054422;28;66127;-35
2022/12/23 04:34:48;;;;;;;11.67;10.67;;;;;;;29.75;48.57;101029.81;5056333;28;69921;-33
2022/12/23 04:37:20;;;;;;;11.23;10.17;;;;;;;29.77;48.88;101016.94;5056141;28;65300;-36
2022/12/23 04:39:51;;;;;;;13.02;10.65;;;;;;;29.79;48.88;101014.03;5058207;28;69916;-38
2022/12/23 04:42:23;;;;;;;12.37;11.07;;;;;;;29.78;48.92;101002.41;5056642;28;66229;-35
2022/12/23 04:44:54;;;;;;;12.05;10.95;;;;;;;29.82;48.37;101002.81;5061976;28;70437;-34
2022/12/23 04:47:26;;;;;;;13.00;10.30;;;;;;;29.85;48.92;101005.09;5046414;28;66022;-35
2022/12/23 04:49:57;;;;;;;12.68;11.45;;;;;;;29.87;48.35;100994.06;5052470;28;69598;-36
2022/12/23 04:52:28;;;;;;;12.27;10.90;;;;;;;29.90;48.71;100989.06;5058294;28;66444;-35
2022/12/23 04:54:59;;;;;;;12.00;11.05;;;;;;;29.93;48.29;100993.22;5058312;28;69229;-37
2022/12/23 04:57:31;;;;;;;13.17;11.53;;;;;;;29.78;48.30;100964.53;5056145;28;66446;-34
2022/12/23 05:00:03;;;;;;;12.18;11.23;;;;;;;29.97;48.57;100983.63;5058630;28;69363;-37
2022/12/23 05:02:34;;;;;;;13.02;10.43;;;;;;;29.98;48.70;100966.38;5054390;28;66531;-36
2022/12/23 05:05:06;;;;;;;11.93;10.95;;;;;;;30.00;48.58;100962.38;5054126;28;70270;-37
2022/12/23 05:07:38;;;;;;;11.63;10.55;;;;;;;30.02;48.29;100954.91;5055012;28;65438;-36
2022/12/23 05:10:10;;;;;;;12.15;10.70;;;;;;;30.06;48.11;100949.88;5053535;28;70351;-36
2022/12/23 05:12:41;;;;;;;12.23;11.18;;;;;;;30.05;48.48;100942.81;5050925;28;65359;-35
2022/12/23 05:15:12;;;;;;;13.15;12.07;;;;;;;30.07;47.82;100935.34;5052034;28;69806;-35
2022/12/23 05:17:44;;;;;;;12.17;11.13;;;;;;;30.12;47.92;100938.22;5053948;28;65464;-39
2022/12/23 05:20:15;;;;;;;13.73;12.30;;;;;;;30.13;48.18;100923.66;5052253;28;69966;-35
2022/12/23 05:22:46;;;;;;;12.10;11.27;;;;;;;30.15;47.81;100926.97;5046339;28;65175;-35
2022/12/23 05:25:18;;;;;;;13.35;11.18;;;;;;;30.17;47.98;100916.78;5043184;28;70334;-35
2022/12/23 05:27:49;;;;;;;14.33;11.83;;;;;;;30.09;47.99;100889.97;5045035;28;65654;-36
2022/12/23 05:30:20;;;;;;;13.13;11.40;;;;;;;30.22;48.23;100899.91;5043441;28;70219;-37
2022/12/23 05:32:58;;;;;;;12.03;10.97;;;;;;;30.24;47.69;100887.84;5042848;28;65822;-38
2022/12/23 05:35:29;;;;;;;14.55;12.30;;;;;;;30.26;48.26;100890.34;5043269;28;69258;-36
2022/12/23 05:38:02;;;;;;;18.60;14.67;;;;;;;30.28;48.30;100888.22;5041617;28;66305;-36
2022/12/23 05:40:33;;;;;;;17.85;16.30;;;;;;;30.30;48.18;100877.19;5055714;28;69290;-34
2022/12/23 05:43:04;;;;;;;19.90;18.23;;;;;;;30.28;48.36;100867.44;5059472;28;65373;-34
2022/12/23 05:45:36;;;;;;;24.20;22.10;;;;;;;30.29;48.19;100868.25;5055982;28;69419;-35
2022/12/23 05:48:07;;;;;;;24.40;22.20;;;;;;;30.31;47.76;100859.91;5055321;28;66173;-37
2022/12/23 05:50:39;;;;;;;24.00;21.58;;;;;;;30.33;47.86;100852.41;5055240;28;69815;-36
2022/12/23 05:53:10;;;;;;;;;;;;;;;30.03;48.00;100837.56;5054155;28;65532;-34
2022/12/23 05:55:41;;;;;;;19.77;18.05;;;;;;;30.33;48.13;100834.28;5052703;28;70298;-39
2022/12/23 05:58:14;;;;;;;19.07;17.70;;;;;;;30.35;47.91;100828.66;5051205;28;66082;-41
2022/12/23 06:00:45;;;;;;;19.60;17.80;;;;;;;30.38;47.92;100836.34;5053858;28;69615;-37
2022/12/23 06:03:16;;;;;;;19.63;17.83;;;;;;;30.39;47.63;100822.59;5053095;28;65891;-34
2022/12/23 06:05:51;;;;;;;23.15;20.98;;;;;;;30.41;47.52;100817.78;5051456;28;70363;-37
2022/12/23 06:08:24;;;;;;;23.55;21.17;;;;;;;30.43;48.09;100820.28;5051717;28;65548;-37
2022/12/23 06:10:55;;;;;;;22.10;20.13;;;;;;;30.43;47.98;100804.06;5052429;28;70579;-36
2022/12/23 06:13:26;;;;;;;22.13;20.23;;;;;;;30.36;47.65;100793.25;5051724;28;66614;-35
2022/12/23 06:15:57;;;;;;;21.73;19.80;;;;;;;30.45;47.54;100801.94;5054759;28;70230;-37
2022/12/23 06:18:29;;;;;;;22.23;20.30;;;;;;;30.47;47.67;100797.13;5054380;28;66640;-39
2022/12/23 06:21:00;;;;;;;20.58;18.98;;;;;;;30.49;47.68;100790.47;5054396;28;70015;-35
2022/12/23 06:23:31;;;;;;;22.30;20.43;;;;;;;30.50;47.67;100775.03;5055282;28;65200;-35
2022/12/23 06:26:03;;;;;;;21.98;20.13;;;;;;;30.43;47.89;100758.88;5049135;28;70397;-37
2022/12/23 06:28:35;;;;;;;20.95;19.15;;;;;;;30.46;47.83;100750.31;5054641;28;65534;-37
2022/12/23 06:31:06;;;;;;;19.83;17.98;;;;;;;30.55;47.86;100758.97;5047757;28;72036;-38
2022/12/23 06:33:38;;;;;;;18.60;17.08;;;;;;;30.59;47.47;100753.94;5054903;28;64654;-36
2022/12/23 06:36:09;;;;;;;21.00;18.95;;;;;;;30.59;47.76;100743.97;5051649;28;69923;-35
2022/12/23 06:38:40;;;;;;;24.38;21.85;;;;;;;30.60;47.46;100745.59;5053327;28;65368;-36
2022/12/23 06:41:12;;;;;;;22.50;20.60;;;;;;;30.63;47.35;100739.75;5051229;28;68922;-34
2022/12/23 06:43:44;;;;;;;21.10;19.25;;;;;;;30.65;47.49;100736.81;5054709;28;66311;-36
2022/12/23 06:46:22;;;;;;;22.05;20.08;;;;;;;30.68;47.53;100725.53;5059238;28;69241;-39
2022/12/23 06:48:54;;;;;;;19.13;17.53;;;;;;;30.61;47.20;100714.75;5057077;28;66015;-36
2022/12/23 06:51:25;;;;;;;20.08;18.40;;;;;;;30.66;47.12;100714.09;5053909;28;69953;-35
2022/12/23 06:53:59;;;;;;;21.53;19.53;;;;;;;30.34;47.62;100653.81;5053753;28;66464;-35
2022/12/23 06:56:32;;;;;;;20.88;18.85;;;;;;;30.74;46.91;100711.13;5059396;28;69539;-35
2022/12/23 06:59:03;;;;;;;21.52;19.65;;;;;;;30.77;47.10;100707.94;5052410;28;66207;-40
2022/12/23 07:01:34;;;;;;;19.55;18.05;;;;;;;30.70;47.09;100691.78;5057246;28;70619;-35
2022/12/23 07:04:06;;;;;;;20.08;18.33;;;;;;;30.79;47.33;100700.44;5052684;28;65580;-35
2022/12/23 07:06:38;;;;;;;22.35;19.52;;;;;;;30.81;46.70;100692.09;5054681;28;69870;-36
2022/12/23 07:09:10;;;;;;;;;;;;;;;30.56;47.56;100684.81;5054571;28;65321;-35
2022/12/23 07:11:41;;;;;;;19.08;17.48;;;;;;;30.83;47.29;100674.59;5057593;28;69709;-35
2022/12/23 07:14:12;;;;;;;18.00;16.33;;;;;;;30.81;46.80;100665.03;5055603;28;66126;-35
2022/12/23 07:16:44;;;;;;;18.13;16.45;;;;;;;30.89;47.07;100681.81;5048451;28;69044;-34
2022/12/23 07:19:15;;;;;;;18.73;16.92;;;;;;;30.92;46.80;100672.41;5052535;28;66180;-34
2022/12/23 07:21:46;;;;;;;18.83;16.88;;;;;;;30.94;46.62;100664.88;5048555;28;69679;-34
2022/12/23 07:24:18;;;;;;;17.20;15.73;;;;;;;30.97;46.38;100664.44;5056314;28;66413;-35
2022/12/23 07:26:51;;;;;;;26.08;16.55;;;;;;;30.94;46.56;100654.06;5051604;28;69581;-38
2022/12/23 07:29:22;;;;;;;17.13;15.57;;;;;;;31.03;46.34;100663.53;5052949;28;66126;-37
2022/12/23 07:31:53;;;;;;;16.77;15.15;;;;;;;30.96;46.54;100646.53;5051896;28;69160;-36
2022/12/23 07:34:25;;;;;;;17.67;15.82;;;;;;;31.04;46.48;100659.78;5050264;28;65774;-35
2022/12/23 07:36:56;;;;;;;19.00;15.48;;;;;;;31.10;46.62;100664.28;5057246;28;71046;-34
2022/12/23 07:39:28;;;;;;;16.60;15.10;;;;;;;31.06;46.39;100646.81;5058532;28;66408;-35
2022/12/23 07:41:59;;;;;;;17.13;14.93;;;;;;;31.15;45.87;100659.00;5057428;28;69725;-38
2022/12/23 07:44:50;;;;;;;20.10;15.27;;;;;;;31.21;46.34;100654.56;5058951;28;66330;-37
2022/12/23 07:47:22;;;;;;;16.73;15.05;;;;;;;31.23;46.17;100641.63;5056324;28;70208;-37
2022/12/23 07:49:53;;;;;;;15.93;14.73;;;;;;;30.76;46.06;100570.06;5052937;28;65352;-35
2022/12/23 07:52:24;;;;;;;17.05;14.38;;;;;;;31.21;46.01;100643.72;5061599;28;69185;-34
2022/12/23 07:54:56;;;;;;;26.13;14.17;;;;;;;31.30;45.85;100646.94;5059951;28;66304;-34
2022/12/23 07:57:28;;;;;;;15.50;13.40;;;;;;;31.31;45.69;100632.31;5055638;28;69631;-37
2022/12/23 07:59:59;;;;;;;;;;;;;;;31.09;45.32;100643.69;5058589;28;67142;-34
2022/12/23 08:02:41;;;;;;;15.02;13.60;;;;;;;31.32;45.78;100628.59;5052843;28;69484;-36
2022/12/23 08:05:13;;;;;;;17.48;13.43;;;;;;;31.43;45.45;100635.97;5047294;28;66139;-35
2022/12/23 08:07:45;;;;;;;25.13;14.00;;;;;;;31.46;44.96;100648.22;5057951;28;69720;-37
2022/12/23 08:10:16;;;;;;;22.70;13.18;;;;;;;31.29;45.50;100618.19;5061020;28;66601;-34
2022/12/23 08:12:48;;;;;;;21.45;12.82;;;;;;;31.51;44.87;100645.63;5057549;28;70051;-38
2022/12/23 08:15:19;;;;;;;15.18;12.70;;;;;;;31.55;45.14;100650.38;5052155;28;66087;-36
2022/12/23 08:17:51;;;;;;;19.75;12.80;;;;;;;31.58;45.20;100649.91;5054884;28;69409;-35
2022/12/23 08:20:22;;;;;;;22.70;13.10;;;;;;;31.61;45.04;100643.19;5054206;28;66091;-35
2022/12/23 08:22:54;;;;;;;22.48;12.15;;;;;;;31.31;44.61;100591.69;5058284;28;70420;-35
2022/12/23 08:25:26;;;;;;;13.57;12.05;;;;;;;31.68;44.77;100648.50;5048378;28;66383;-35
2022/12/23 08:27:57;;;;;;;13.63;12.23;;;;;;;31.66;44.68;100653.38;5055641;28;70076;-35
2022/12/23 08:30:28;;;;;;;13.33;12.13;;;;;;;31.61;44.51;100635.88;5061581;28;65315;-34
2022/12/23 08:33:00;;;;;;;17.73;12.23;;;;;;;31.76;44.50;100656.31;5058469;28;69827;-36
2022/12/23 08:35:31;;;;;;;12.63;11.33;;;;;;;31.78;44.49;100649.59;5057015;28;65393;-34
2022/12/23 08:38:02;;;;;;;19.58;11.88;;;;;;;31.82;44.36;100650.00;5059862;28;68991;-37
2022/12/23 08:40:34;;;;;;;20.23;11.43;;;;;;;31.86;44.34;100656.59;5060188;28;66348;-37
2022/12/23 08:43:08;;;;;;;13.20;11.90;;;;;;;31.90;44.19;100652.38;5056030;28;43398;-34
2022/12/23 08:45:39;;;;;;;15.70;11.50;;;;;;;31.91;44.06;100648.63;5053525;28;65413;-36
2022/12/23 08:48:11;;;;;;;15.48;10.60;;;;;;;31.94;44.07;100648.16;5053245;28;69989;-35
2022/12/23 08:50:45;;;;;;;18.88;11.35;;;;;;;31.99;44.01;100658.31;5056251;28;67139;-36
2022/12/23 08:53:16;;;;;;;12.45;11.13;;;;;;;32.01;43.84;100648.03;5053230;28;69572;-35
2022/12/23 08:55:48;;;;;;;11.30;10.37;;;;;;;32.00;44.09;100658.06;5054939;28;66430;-35
2022/12/23 08:58:19;;;;;;;17.48;10.40;;;;;;;32.05;43.79;100660.91;5054937;28;70313;-35
2022/12/23 09:00:50;;;;;;;15.23;10.43;;;;;;;32.04;43.67;100664.69;5057871;28;66007;-36
2022/12/23 09:03:22;;;;;;;15.80;10.63;;;;;;;32.08;43.65;100662.31;5039840;28;70856;-35
2022/12/23 09:05:53;;;;;;;16.05;11.02;;;;;;;32.09;43.89;100655.00;5051620;28;66176;-35
2022/12/23 09:08:25;;;;;;;12.73;10.48;;;;;;;32.10;43.71;100656.69;5057018;28;70285;-35
2022/12/23 09:10:56;;;;;;;11.93;10.30;;;;;;;32.14;43.51;100668.72;5055454;28;66115;-35
2022/12/23 09:13:28;;;;;;;13.52;10.35;;;;;;;32.19;43.36;100676.97;5052143;28;69798;-35
2022/12/23 09:16:05;;;;;;;16.05;10.30;;;;;;;32.19;42.88;100671.56;5052677;28;66187;-34
2022/12/23 09:18:37;;;;;;;19.73;11.00;;;;;;;32.22;43.13;100681.94;5050311;28;69703;-36
2022/12/23 09:21:13;;;;;;;12.23;10.68;;;;;;;31.75;42.71;100617.53;5048660;28;66697;-34
2022/12/23 09:23:44;;;;;;;19.05;12.50;;;;;;;32.01;43.75;100677.88;5034150;28;69971;-34
2022/12/23 09:26:28;;;;;;;15.05;12.57;;;;;;;31.64;44.03;100658.19;5054688;28;65379;-34
2022/12/23 09:28:59;;;;;;;14.00;12.65;;;;;;;31.81;44.53;100683.56;5055130;28;69601;-34
2022/12/23 09:31:31;;;;;;;18.65;13.18;;;;;;;31.73;45.33;100684.75;5057881;28;65341;-35
2022/12/23 09:34:06;;;;;;;16.65;13.23;;;;;;;31.65;45.47;100689.66;5054994;28;70045;-37
2022/12/23 09:36:37;;;;;;;24.40;13.15;;;;;;;31.64;45.67;100701.56;5055118;28;65261;-36
2022/12/23 09:39:09;;;;;;;18.93;12.63;;;;;;;31.60;45.71;100704.75;5058140;28;69190;-36
2022/12/23 09:42:06;;;;;;;18.77;12.65;;;;;;;31.41;46.03;100697.69;5053568;28;66242;-35
2022/12/23 09:45:19;;;;;;;21.13;12.77;;;;;;;31.49;45.99;100710.94;5060147;28;69549;-38
2022/12/23 09:47:51;;;;;;;24.05;13.27;;;;;;;31.52;46.08;100720.50;5031124;28;66664;-38
2022/12/23 09:50:33;;;;;;;;;;;;;;;31.30;46.52;100722.81;5055330;28;69421;-40
2022/12/23 09:53:14;;;;;;;21.77;13.15;;;;;;;31.50;46.54;100734.28;5055432;28;65980;-38
2022/12/23 09:56:08;;;;;;;27.02;13.68;;;;;;;31.55;46.75;100737.13;5052303;28;69880;-37
2022/12/23 09:58:44;;;;;;;24.33;15.23;;;;;;;31.40;46.88;100728.59;5015235;28;66079;-35
2022/12/23 10:01:33;;;;;;;27.85;15.68;;;;;;;31.44;47.28;100739.78;5051276;28;69653;-36
2022/12/23 10:04:21;;;;;;;32.30;15.35;;;;;;;31.49;46.95;100746.19;5052464;28;66991;-36
2022/12/23 10:07:21;;;;;;;29.20;15.70;;;;;;;30.96;47.73;100684.47;5054876;28;69976;-34
2022/12/23 10:09:56;;;;;;;40.70;17.48;;;;;;;30.79;48.24;100642.75;5053839;28;65247;-36
2022/12/23 10:12:41;;;;;;;51.80;17.45;;;;;;;31.44;48.44;100778.56;5051319;28;69169;-35
2022/12/23 10:15:35;;;;;;;51.30;15.27;;;;;;;31.44;48.69;100765.00;5048708;28;65576;-35
2022/12/23 10:18:19;;;;;;;37.72;13.85;;;;;;;31.37;48.15;100761.53;5052744;28;69117;-34
2022/12/23 10:20:58;;;;;;;28.20;13.88;;;;;;;31.31;48.27;100757.00;5052776;28;66198;-35
2022/12/23 10:23:36;;;;;;;33.03;13.13;;;;;;;31.40;48.43;100771.94;5053641;28;69836;-35
2022/12/23 10:26:28;;;;;;;23.98;13.80;;;;;;;31.27;48.38;100780.19;5054432;28;65880;-38
2022/12/23 10:29:16;;;;;;;35.25;14.70;;;;;;;31.32;48.32;100785.78;5051978;28;70471;-38
2022/12/23 10:32:14;;;;;;;45.75;15.70;;;;;;;31.25;48.98;100787.72;5055310;28;65376;-35
2022/12/23 10:35:09;;;;;;;39.10;13.93;;;;;;;31.23;48.97;100793.38;5054037;28;69987;-33
2022/12/23 10:37:59;;;;;;;46.53;15.93;;;;;;;31.21;48.96;100794.66;5049347;28;65781;-37
2022/12/23 10:40:44;;;;;;;50.65;16.40;;;;;;;30.82;48.65;100748.78;5054003;28;70159;-37
2022/12/23 10:43:30;;;;;;;55.08;17.27;;;;;;;31.16;48.46;100796.13;5055411;28;65722;-33
2022/12/23 10:46:26;;;;;;;47.55;17.58;;;;;;;31.19;49.20;100803.00;5055896;28;69545;-34
2022/12/23 10:49:12;;;;;;;42.67;17.08;;;;;;;30.72;49.18;100745.69;5054312;28;67197;-35
2022/12/23 10:51:52;;;;;;;58.30;19.80;;;;;;;31.21;49.67;100808.19;5056770;28;69667;-34
2022/12/23 10:54:31;;;;;;;51.38;19.33;;;;;;;31.26;49.88;100825.44;5057051;28;66343;-37
2022/12/23 10:57:05;;;;;;;51.28;18.60;;;;;;;30.90;49.88;100750.38;5052498;28;69381;-38
2022/12/23 10:59:37;;;;;;;53.35;17.35;;;;;;;31.25;49.91;100818.34;5051619;28;66297;-36
2022/12/23 11:02:14;;;;;;;42.88;16.48;;;;;;;31.24;49.57;100821.28;5055874;28;70451;-34
2022/12/23 11:04:47;;;;;;;66.85;17.42;;;;;;;30.97;50.03;100786.31;5059437;28;64696;-35
2022/12/23 11:07:27;;;;;;;58.47;17.00;;;;;;;31.19;49.96;100834.69;5052220;28;70583;-34
2022/12/23 11:10:27;;;;;;;42.15;16.67;;;;;;;31.25;49.70;100840.03;5057316;28;65367;-39
2022/12/23 11:12:59;;;;;;;39.67;16.52;;;;;;;31.23;50.44;100844.88;5052794;28;68799;-35
2022/12/23 11:15:33;;;;;;;51.30;16.42;;;;;;;30.50;50.78;100737.97;5058532;28;66563;-37
2022/12/23 11:18:11;;;;;;;37.58;14.50;;;;;;;31.23;50.71;100857.56;5049826;28;70500;-38
2022/12/23 11:20:45;;;;;;;31.77;14.18;;;;;;;31.26;50.00;100868.81;5055314;28;66438;-35
2022/12/23 11:23:25;;;;;;;31.00;12.90;;;;;;;30.85;48.58;100796.25;5054784;28;70279;-36
2022/12/23 11:26:13;;;;;;;31.45;13.82;;;;;;;31.27;48.15;100881.28;5052385;28;65876;-37
2022/12/23 11:28:57;;;;;;;26.95;13.18;;;;;;;30.94;48.53;100832.81;5051113;28;69724;-37
2022/12/23 11:31:34;;;;;;;26.10;13.50;;;;;;;31.34;47.97;100902.91;5049965;28;65339;-35
2022/12/23 11:34:14;;;;;;;27.83;13.90;;;;;;;31.02;48.08;100851.50;5056537;28;68690;-37
2022/12/23 11:36:56;;;;;;;19.95;12.38;;;;;;;31.21;47.88;100887.59;5056350;28;66060;-35
2022/12/23 11:39:37;;;;;;;28.73;12.63;;;;;;;31.29;47.92;100905.47;5051219;28;70168;-36
2022/12/23 11:42:15;;;;;;;30.80;13.43;;;;;;;31.31;47.62;100908.78;5055033;28;66352;-36
2022/12/23 11:44:50;;;;;;;19.52;11.82;;;;;;;31.29;47.29;100921.72;5048636;28;70038;-35
2022/12/23 11:47:40;;;;;;;26.50;12.60;;;;;;;31.24;46.82;100908.00;5048506;28;65608;-35
2022/12/23 11:50:26;;;;;;;30.45;12.18;;;;;;;31.22;46.98;100918.25;5055193;28;70397;-36
2022/12/23 11:53:12;;;;;;;16.60;10.38;;;;;;;31.15;46.93;100907.47;5053384;28;65712;-34
2022/12/23 11:56:09;;;;;;;16.83;11.52;;;;;;;31.12;47.08;100922.28;5055848;28;70166;-35
2022/12/23 11:59:15;;;;;;;23.85;12.90;;;;;;;31.10;47.32;100918.97;5053922;28;66872;-35
2022/12/23 12:01:48;;;;;;;19.90;10.82;;;;;;;30.82;46.95;100861.69;5049365;28;70562;-35
2022/12/23 12:04:24;;;;;;;16.60;11.35;;;;;;;31.11;47.16;100911.66;5050061;28;66363;-34
2022/12/23 12:06:57;;;;;;;12.85;10.90;;;;;;;31.19;47.68;100926.81;5051261;28;69756;-37
2022/12/23 12:09:31;;;;;;;16.77;11.13;;;;;;;31.15;47.13;100929.97;5045844;28;65403;-37
2022/12/23 12:12:07;;;;;;;17.70;10.02;;;;;;;31.09;47.15;100914.59;5052107;28;70087;-34
2022/12/23 12:14:44;;;;;;;24.58;10.98;;;;;;;30.72;46.96;100868.38;5053723;28;65750;-34
2022/12/23 12:17:54;;;;;;;11.60;10.38;;;;;;;31.10;47.48;100935.22;5052688;28;71399;-34
2022/12/23 12:20:29;;;;;;;14.07;9.90;;;;;;;31.09;47.31;100949.81;5024859;28;65474;-37
2022/12/23 12:23:14;;;;;;;14.18;10.50;;;;;;;30.91;47.72;100928.06;5057962;28;69504;-35
2022/12/23 12:25:59;;;;;;;13.85;10.05;;;;;;;31.01;47.73;100960.94;5058616;28;67141;-35